sensor_id;sensor_type;location;lat;lon;timestamp;temperature;humidity
12460;DHT22;6295;49.452;8.466;2023-10-31T08:14:30;11.40;99.90
12460;DHT22;6295;49.452;8.466;2023-10-31T08:18:32;11.40;99.90
12460;DHT22;6295;49.452;8.466;2023-10-31T08:22:36;11.40;99.90
12460;DHT22;6295;49.452;8.466;2023-10-31T08:26:39;11.40;99.90
12460;DHT22;6295;49.452;8.466;2023-10-31T08:30:43;11.40;99.90
12460;DHT22;6295;49.452;8.466;2023-10-31T08:34:45;11.50;99.90
12460;DHT22;6295;49.452;8.466;2023-10-31T08:38:48;11.60;99.90
12460;DHT22;6295;49.452;8.466;2023-10-31T08:42:52;11.60;99.90
12460;DHT22;6295;49.452;8.466;2023-10-31T08:46:58;11.70;99.90
12460;DHT22;6295;49.452;8.466;2023-10-31T08:55:04;11.80;99.90
12460;DHT22;6295;49.452;8.466;2023-10-31T08:59:07;11.80;99.90
12460;DHT22;6295;49.452;8.466;2023-10-31T09:03:10;11.80;99.90
12460;DHT22;6295;49.452;8.466;2023-10-31T09:07:14;11.90;99.90
12460;DHT22;6295;49.452;8.466;2023-10-31T09:11:16;11.90;99.90
12460;DHT22;6295;49.452;8.466;2023-10-31T09:15:19;11.90;99.90
12460;DHT22;6295;49.452;8.466;2023-10-31T09:19:23;12.00;99.90
12460;DHT22;6295;49.452;8.466;2023-10-31T09:27:28;12.10;99.90
12460;DHT22;6295;49.452;8.466;2023-10-31T09:31:33;12.20;99.90
12460;DHT22;6295;49.452;8.466;2023-10-31T09:35:36;12.30;99.90
12460;DHT22;6295;49.452;8.466;2023-10-31T09:39:39;12.40;99.90
12460;DHT22;6295;49.452;8.466;2023-10-31T09:43:41;12.40;99.90
12460;DHT22;6295;49.452;8.466;2023-10-31T09:47:44;12.50;99.90
12460;DHT22;6295;49.452;8.466;2023-10-31T09:51:49;12.60;99.90
12460;DHT22;6295;49.452;8.466;2023-10-31T09:55:53;12.60;99.90
12460;DHT22;6295;49.452;8.466;2023-10-31T09:59:56;12.70;99.90
12460;DHT22;6295;49.452;8.466;2023-10-31T10:03:59;12.70;99.90
12460;DHT22;6295;49.452;8.466;2023-10-31T10:08:03;12.70;99.90
12460;DHT22;6295;49.452;8.466;2023-10-31T10:12:07;12.70;99.90
12460;DHT22;6295;49.452;8.466;2023-10-31T10:16:09;12.70;99.90
12460;DHT22;6295;49.452;8.466;2023-10-31T10:20:12;12.70;99.90
12460;DHT22;6295;49.452;8.466;2023-10-31T10:24:19;12.70;99.90
12460;DHT22;6295;49.452;8.466;2023-10-31T10:28:23;12.70;99.90
12460;DHT22;6295;49.452;8.466;2023-10-31T10:32:25;12.80;99.90
12460;DHT22;6295;49.452;8.466;2023-10-31T10:36:28;12.80;99.90
12460;DHT22;6295;49.452;8.466;2023-10-31T10:40:35;12.80;99.90
12460;DHT22;6295;49.452;8.466;2023-10-31T10:44:42;12.80;99.90
12460;DHT22;6295;49.452;8.466;2023-10-31T10:48:47;12.90;99.90
12460;DHT22;6295;49.452;8.466;2023-10-31T10:53:01;12.90;99.90
12460;DHT22;6295;49.452;8.466;2023-10-31T10:57:14;12.90;99.90
12460;DHT22;6295;49.452;8.466;2023-10-31T11:01:17;12.90;99.90
12460;DHT22;6295;49.452;8.466;2023-10-31T11:05:20;12.90;99.90
12460;DHT22;6295;49.452;8.466;2023-10-31T11:09:23;12.90;99.90
12460;DHT22;6295;49.452;8.466;2023-10-31T11:13:27;12.90;99.90
12460;DHT22;6295;49.452;8.466;2023-10-31T11:17:31;13.00;99.90
12460;DHT22;6295;49.452;8.466;2023-10-31T11:21:35;13.00;99.90
12460;DHT22;6295;49.452;8.466;2023-10-31T11:25:42;13.00;99.90
12460;DHT22;6295;49.452;8.466;2023-10-31T11:29:48;13.10;99.90
12460;DHT22;6295;49.452;8.466;2023-10-31T11:33:52;13.10;99.90
12460;DHT22;6295;49.452;8.466;2023-10-31T11:38:03;13.10;99.90
12460;DHT22;6295;49.452;8.466;2023-10-31T11:42:19;13.20;99.90
12460;DHT22;6295;49.452;8.466;2023-10-31T11:46:29;13.20;99.90
12460;DHT22;6295;49.452;8.466;2023-10-31T11:50:33;13.30;99.90
12460;DHT22;6295;49.452;8.466;2023-10-31T11:54:35;13.30;99.90
12460;DHT22;6295;49.452;8.466;2023-10-31T11:58:39;13.30;99.90
12460;DHT22;6295;49.452;8.466;2023-10-31T12:02:57;13.40;99.90
12460;DHT22;6295;49.452;8.466;2023-10-31T12:06:59;13.40;99.90
12460;DHT22;6295;49.452;8.466;2023-10-31T12:11:09;13.60;99.90
12460;DHT22;6295;49.452;8.466;2023-10-31T12:15:12;13.60;99.90
12460;DHT22;6295;49.452;8.466;2023-10-31T12:19:16;13.60;99.90
12460;DHT22;6295;49.452;8.466;2023-10-31T12:23:24;13.60;99.90
12460;DHT22;6295;49.452;8.466;2023-10-31T12:27:26;13.60;99.90
12460;DHT22;6295;49.452;8.466;2023-10-31T12:31:44;13.60;99.90
12460;DHT22;6295;49.452;8.466;2023-10-31T12:35:49;13.70;99.90
12460;DHT22;6295;49.452;8.466;2023-10-31T12:39:51;13.80;99.90
12460;DHT22;6295;49.452;8.466;2023-10-31T12:43:54;13.90;99.90
12460;DHT22;6295;49.452;8.466;2023-10-31T12:48:04;14.00;99.90
12460;DHT22;6295;49.452;8.466;2023-10-31T12:52:10;14.10;99.90
12460;DHT22;6295;49.452;8.466;2023-10-31T12:56:37;14.10;99.90
12460;DHT22;6295;49.452;8.466;2023-10-31T13:00:40;14.00;99.90
12460;DHT22;6295;49.452;8.466;2023-10-31T13:04:43;14.00;99.90
12460;DHT22;6295;49.452;8.466;2023-10-31T13:08:47;14.00;99.90
12460;DHT22;6295;49.452;8.466;2023-10-31T13:12:49;13.90;99.90
12460;DHT22;6295;49.452;8.466;2023-10-31T13:16:52;13.90;99.90
12460;DHT22;6295;49.452;8.466;2023-10-31T13:24:58;14.10;99.90
12460;DHT22;6295;49.452;8.466;2023-10-31T13:29:01;14.20;99.90
12460;DHT22;6295;49.452;8.466;2023-10-31T13:33:04;14.30;99.90
12460;DHT22;6295;49.452;8.466;2023-10-31T13:37:09;14.30;99.90
12460;DHT22;6295;49.452;8.466;2023-10-31T13:41:12;14.30;99.90
12460;DHT22;6295;49.452;8.466;2023-10-31T13:45:15;14.20;99.90
12460;DHT22;6295;49.452;8.466;2023-10-31T13:53:20;14.10;99.90
12460;DHT22;6295;49.452;8.466;2023-10-31T13:57:26;14.10;99.90
12460;DHT22;6295;49.452;8.466;2023-10-31T14:01:32;14.00;99.90
12460;DHT22;6295;49.452;8.466;2023-10-31T14:05:35;14.00;99.90
12460;DHT22;6295;49.452;8.466;2023-10-31T14:09:38;14.00;99.90
12460;DHT22;6295;49.452;8.466;2023-10-31T14:13:42;14.00;99.90
12460;DHT22;6295;49.452;8.466;2023-10-31T14:17:46;14.00;99.90
12460;DHT22;6295;49.452;8.466;2023-10-31T14:21:49;14.10;99.90
12460;DHT22;6295;49.452;8.466;2023-10-31T14:25:53;14.10;99.90
12460;DHT22;6295;49.452;8.466;2023-10-31T14:29:56;14.10;99.90
12460;DHT22;6295;49.452;8.466;2023-10-31T14:34:01;14.10;99.90
12460;DHT22;6295;49.452;8.466;2023-10-31T14:38:04;14.00;99.90
12460;DHT22;6295;49.452;8.466;2023-10-31T14:42:08;14.00;99.90
12460;DHT22;6295;49.452;8.466;2023-10-31T14:46:16;13.90;99.90
12460;DHT22;6295;49.452;8.466;2023-10-31T14:50:22;13.90;99.90
12460;DHT22;6295;49.452;8.466;2023-10-31T14:54:25;13.80;99.90
